sensor_id;sensor_type;location;lat;lon;timestamp;pressure;altitude;pressure_sealevel;temperature;humidity
54822;BME280;41299;43.546;16.426;2022-08-02T00:00:09;101321.16;;;28.12;39.64
54822;BME280;41299;43.546;16.426;2022-08-02T00:02:35;101326.53;;;28.11;40.03
54822;BME280;41299;43.546;16.426;2022-08-02T00:05:00;101332.41;;;28.01;40.25
54822;BME280;41299;43.546;16.426;2022-08-02T00:07:26;101327.09;;;28.01;39.93
54822;BME280;41299;43.546;16.426;2022-08-02T00:09:51;101328.13;;;27.99;40.17
54822;BME280;41299;43.546;16.426;2022-08-02T00:12:16;101315.16;;;27.94;40.29
54822;BME280;41299;43.546;16.426;2022-08-02T00:14:42;101323.88;;;27.96;40.09
54822;BME280;41299;43.546;16.426;2022-08-02T00:17:07;101317.03;;;27.92;40.36
54822;BME280;41299;43.546;16.426;2022-08-02T00:19:33;101310.41;;;27.85;40.71
54822;BME280;41299;43.546;16.426;2022-08-02T00:21:58;101305.84;;;27.87;40.60
54822;BME280;41299;43.546;16.426;2022-08-02T00:24:23;101310.09;;;27.75;40.95
54822;BME280;41299;43.546;16.426;2022-08-02T00:26:49;101303.94;;;27.74;41.01
54822;BME280;41299;43.546;16.426;2022-08-02T00:29:14;101306.78;;;27.71;41.11
54822;BME280;41299;43.546;16.426;2022-08-02T00:31:40;101305.25;;;27.67;41.46
54822;BME280;41299;43.546;16.426;2022-08-02T00:34:05;101310.13;;;27.59;41.71
54822;BME280;41299;43.546;16.426;2022-08-02T00:36:30;101308.94;;;27.48;41.92
54822;BME280;41299;43.546;16.426;2022-08-02T00:38:56;101306.34;;;27.47;41.94
54822;BME280;41299;43.546;16.426;2022-08-02T00:41:21;101309.97;;;27.46;42.36
54822;BME280;41299;43.546;16.426;2022-08-02T00:43:49;101303.13;;;27.42;42.22
54822;BME280;41299;43.546;16.426;2022-08-02T00:46:16;101318.22;;;27.39;42.46
54822;BME280;41299;43.546;16.426;2022-08-02T00:48:42;101318.81;;;27.45;42.26
54822;BME280;41299;43.546;16.426;2022-08-02T00:51:07;101314.56;;;27.42;42.32
54822;BME280;41299;43.546;16.426;2022-08-02T00:53:33;101318.41;;;27.36;42.46
54822;BME280;41299;43.546;16.426;2022-08-02T00:55:59;101316.78;;;27.34;42.48
54822;BME280;41299;43.546;16.426;2022-08-02T00:58:25;101309.09;;;27.45;41.86
54822;BME280;41299;43.546;16.426;2022-08-02T01:00:50;101310.88;;;27.45;41.88
54822;BME280;41299;43.546;16.426;2022-08-02T01:03:16;101313.44;;;27.46;41.55
54822;BME280;41299;43.546;16.426;2022-08-02T01:05:41;101312.06;;;27.55;40.42
54822;BME280;41299;43.546;16.426;2022-08-02T01:08:08;101319.06;;;27.56;40.76
54822;BME280;41299;43.546;16.426;2022-08-02T01:10:34;101321.69;;;27.56;40.84
54822;BME280;41299;43.546;16.426;2022-08-02T01:12:59;101316.09;;;27.62;40.87
54822;BME280;41299;43.546;16.426;2022-08-02T01:15:24;101320.72;;;27.59;40.87
54822;BME280;41299;43.546;16.426;2022-08-02T01:18:05;101316.59;;;27.53;41.32
54822;BME280;41299;43.546;16.426;2022-08-02T01:23:27;101321.03;;;27.52;41.08
54822;BME280;41299;43.546;16.426;2022-08-02T01:28:53;101322.94;;;27.50;41.58
54822;BME280;41299;43.546;16.426;2022-08-02T01:31:26;101329.75;;;27.55;41.23
54822;BME280;41299;43.546;16.426;2022-08-02T01:36:36;101331.13;;;27.30;42.08
54822;BME280;41299;43.546;16.426;2022-08-02T01:39:03;101328.00;;;27.23;42.40
54822;BME280;41299;43.546;16.426;2022-08-02T01:41:31;101317.66;;;27.18;42.39
54822;BME280;41299;43.546;16.426;2022-08-02T01:43:59;101320.38;;;27.17;42.92
54822;BME280;41299;43.546;16.426;2022-08-02T01:46:26;101316.38;;;27.09;43.10
54822;BME280;41299;43.546;16.426;2022-08-02T01:48:55;101324.66;;;27.03;44.18
54822;BME280;41299;43.546;16.426;2022-08-02T01:51:21;101323.09;;;26.99;43.77
54822;BME280;41299;43.546;16.426;2022-08-02T01:54:11;101328.94;;;27.06;43.42
54822;BME280;41299;43.546;16.426;2022-08-02T01:56:37;101324.91;;;26.98;43.60
54822;BME280;41299;43.546;16.426;2022-08-02T01:59:04;101324.44;;;26.90;44.37
54822;BME280;41299;43.546;16.426;2022-08-02T02:01:33;101330.94;;;26.84;44.44
54822;BME280;41299;43.546;16.426;2022-08-02T02:04:01;101328.53;;;26.80;45.29
54822;BME280;41299;43.546;16.426;2022-08-02T02:06:27;101330.91;;;26.68;46.91
54822;BME280;41299;43.546;16.426;2022-08-02T02:08:53;101335.59;;;26.63;47.01
54822;BME280;41299;43.546;16.426;2022-08-02T02:11:20;101326.09;;;26.59;46.41
54822;BME280;41299;43.546;16.426;2022-08-02T02:13:46;101330.78;;;26.54;46.84
54822;BME280;41299;43.546;16.426;2022-08-02T02:16:13;101332.19;;;26.43;47.24
54822;BME280;41299;43.546;16.426;2022-08-02T02:18:40;101324.31;;;26.42;47.56
54822;BME280;41299;43.546;16.426;2022-08-02T02:21:08;101325.34;;;26.39;47.24
54822;BME280;41299;43.546;16.426;2022-08-02T02:23:33;101322.13;;;26.34;47.45
54822;BME280;41299;43.546;16.426;2022-08-02T02:26:00;101321.63;;;26.26;49.46
54822;BME280;41299;43.546;16.426;2022-08-02T02:28:29;101321.22;;;26.16;50.29
54822;BME280;41299;43.546;16.426;2022-08-02T02:31:01;101323.94;;;26.14;50.10
54822;BME280;41299;43.546;16.426;2022-08-02T02:33:30;101319.91;;;26.07;50.59
54822;BME280;41299;43.546;16.426;2022-08-02T02:35:57;101317.59;;;26.01;51.63
54822;BME280;41299;43.546;16.426;2022-08-02T02:38:28;101321.31;;;25.97;50.76
54822;BME280;41299;43.546;16.426;2022-08-02T02:40:55;101326.03;;;25.90;53.64
54822;BME280;41299;43.546;16.426;2022-08-02T02:43:24;101320.06;;;25.86;54.51
54822;BME280;41299;43.546;16.426;2022-08-02T02:45:52;101326.66;;;25.77;55.44
54822;BME280;41299;43.546;16.426;2022-08-02T02:48:19;101319.91;;;25.72;55.99
54822;BME280;41299;43.546;16.426;2022-08-02T02:50:46;101323.94;;;25.79;53.23
54822;BME280;41299;43.546;16.426;2022-08-02T02:53:12;101319.22;;;25.86;51.68
54822;BME280;41299;43.546;16.426;2022-08-02T02:55:39;101323.31;;;25.91;50.50
54822;BME280;41299;43.546;16.426;2022-08-02T02:58:06;101321.44;;;25.93;52.30
54822;BME280;41299;43.546;16.426;2022-08-02T03:00:32;101312.75;;;25.91;51.64
54822;BME280;41299;43.546;16.426;2022-08-02T03:03:17;101313.47;;;25.95;50.53
54822;BME280;41299;43.546;16.426;2022-08-02T03:05:42;101313.53;;;25.93;50.11
54822;BME280;41299;43.546;16.426;2022-08-02T03:08:07;101311.69;;;25.96;50.78
54822;BME280;41299;43.546;16.426;2022-08-02T03:10:33;101318.97;;;25.90;51.60
54822;BME280;41299;43.546;16.426;2022-08-02T03:12:59;101316.41;;;25.89;51.63
54822;BME280;41299;43.546;16.426;2022-08-02T03:15:26;101311.44;;;25.83;52.58
54822;BME280;41299;43.546;16.426;2022-08-02T03:17:53;101319.66;;;25.76;53.77
54822;BME280;41299;43.546;16.426;2022-08-02T03:20:19;101319.97;;;25.70;55.86
54822;BME280;41299;43.546;16.426;2022-08-02T03:22:46;101312.06;;;25.70;56.20
54822;BME280;41299;43.546;16.426;2022-08-02T03:25:13;101316.00;;;25.61;59.01
54822;BME280;41299;43.546;16.426;2022-08-02T03:27:39;101311.88;;;25.56;60.20
54822;BME280;41299;43.546;16.426;2022-08-02T03:30:06;101321.94;;;25.47;60.10
54822;BME280;41299;43.546;16.426;2022-08-02T03:32:35;101318.72;;;25.40;57.81
54822;BME280;41299;43.546;16.426;2022-08-02T03:35:04;101324.28;;;25.34;61.09
54822;BME280;41299;43.546;16.426;2022-08-02T03:37:30;101328.81;;;25.32;61.12
54822;BME280;41299;43.546;16.426;2022-08-02T03:39:57;101327.00;;;25.33;61.95
54822;BME280;41299;43.546;16.426;2022-08-02T03:42:25;101338.66;;;25.29;63.18
54822;BME280;41299;43.546;16.426;2022-08-02T03:44:52;101342.94;;;25.31;61.71
54822;BME280;41299;43.546;16.426;2022-08-02T03:47:18;101339.66;;;25.26;64.70
54822;BME280;41299;43.546;16.426;2022-08-02T03:49:44;101338.09;;;25.22;66.89
54822;BME280;41299;43.546;16.426;2022-08-02T03:52:10;101347.50;;;25.08;67.86
54822;BME280;41299;43.546;16.426;2022-08-02T03:54:36;101346.41;;;25.12;67.28
54822;BME280;41299;43.546;16.426;2022-08-02T03:57:05;101349.84;;;25.15;67.73
54822;BME280;41299;43.546;16.426;2022-08-02T03:59:42;101345.47;;;25.33;59.58
54822;BME280;41299;43.546;16.426;2022-08-02T04:02:08;101344.34;;;25.38;59.37
54822;BME280;41299;43.546;16.426;2022-08-02T04:04:34;101347.06;;;25.37;59.54
54822;BME280;41299;43.546;16.426;2022-08-02T04:06:59;101351.34;;;25.39;57.04
54822;BME280;41299;43.546;16.426;2022-08-02T04:09:24;101354.63;;;25.45;58.95
54822;BME280;41299;43.546;16.426;2022-08-02T04:11:50;101352.44;;;25.53;60.33
54822;BME280;41299;43.546;16.426;2022-08-02T04:14:15;101354.31;;;25.51;58.79
54822;BME280;41299;43.546;16.426;2022-08-02T04:16:45;101349.69;;;25.56;56.11
54822;BME280;41299;43.546;16.426;2022-08-02T04:19:26;101352.09;;;25.61;55.51
54822;BME280;41299;43.546;16.426;2022-08-02T04:21:57;101358.09;;;25.64;56.20
54822;BME280;41299;43.546;16.426;2022-08-02T04:24:26;101359.38;;;25.75;53.98
54822;BME280;41299;43.546;16.426;2022-08-02T04:26:55;101353.88;;;25.97;52.09
54822;BME280;41299;43.546;16.426;2022-08-02T04:29:21;101359.56;;;26.07;51.41
54822;BME280;41299;43.546;16.426;2022-08-02T04:31:47;101360.19;;;26.12;50.91
54822;BME280;41299;43.546;16.426;2022-08-02T04:34:13;101355.97;;;26.08;51.66
54822;BME280;41299;43.546;16.426;2022-08-02T04:36:39;101359.25;;;26.13;51.32
54822;BME280;41299;43.546;16.426;2022-08-02T04:39:05;101356.75;;;26.10;51.88
54822;BME280;41299;43.546;16.426;2022-08-02T04:44:03;101364.78;;;26.09;53.45
54822;BME280;41299;43.546;16.426;2022-08-02T04:46:28;101364.06;;;26.05;58.38
54822;BME280;41299;43.546;16.426;2022-08-02T04:48:54;101374.78;;;26.02;62.80
54822;BME280;41299;43.546;16.426;2022-08-02T04:51:19;101370.50;;;25.99;59.35
54822;BME280;41299;43.546;16.426;2022-08-02T04:53:45;101372.78;;;26.07;54.62
54822;BME280;41299;43.546;16.426;2022-08-02T04:56:10;101373.53;;;26.09;59.57
54822;BME280;41299;43.546;16.426;2022-08-02T04:58:35;101382.41;;;26.08;60.26
54822;BME280;41299;43.546;16.426;2022-08-02T05:01:01;101380.06;;;26.02;70.62
54822;BME280;41299;43.546;16.426;2022-08-02T05:03:26;101381.47;;;25.91;76.48
54822;BME280;41299;43.546;16.426;2022-08-02T05:05:52;101387.97;;;25.84;77.49
54822;BME280;41299;43.546;16.426;2022-08-02T05:08:17;101373.91;;;25.84;65.94
54822;BME280;41299;43.546;16.426;2022-08-02T05:10:42;101373.41;;;25.95;58.15
54822;BME280;41299;43.546;16.426;2022-08-02T05:13:08;101375.50;;;26.05;56.93
54822;BME280;41299;43.546;16.426;2022-08-02T05:15:33;101385.84;;;26.28;54.06
54822;BME280;41299;43.546;16.426;2022-08-02T05:17:59;101386.94;;;26.41;52.09
54822;BME280;41299;43.546;16.426;2022-08-02T05:20:24;101386.78;;;26.44;53.04
54822;BME280;41299;43.546;16.426;2022-08-02T05:22:49;101386.00;;;26.60;51.96
54822;BME280;41299;43.546;16.426;2022-08-02T05:25:15;101379.75;;;26.61;52.64
54822;BME280;41299;43.546;16.426;2022-08-02T05:27:40;101385.34;;;26.72;50.70
54822;BME280;41299;43.546;16.426;2022-08-02T05:30:06;101383.16;;;26.81;50.38
54822;BME280;41299;43.546;16.426;2022-08-02T05:32:32;101380.66;;;26.78;51.38
54822;BME280;41299;43.546;16.426;2022-08-02T05:34:59;101389.53;;;26.77;52.18
54822;BME280;41299;43.546;16.426;2022-08-02T05:37:25;101382.53;;;26.76;51.33
54822;BME280;41299;43.546;16.426;2022-08-02T05:39:51;101390.50;;;26.76;55.19
54822;BME280;41299;43.546;16.426;2022-08-02T05:42:16;101387.75;;;26.77;58.75
54822;BME280;41299;43.546;16.426;2022-08-02T05:44:42;101378.19;;;26.75;64.45
54822;BME280;41299;43.546;16.426;2022-08-02T05:47:07;101377.88;;;26.81;59.06
54822;BME280;41299;43.546;16.426;2022-08-02T05:49:32;101378.31;;;26.89;56.21
54822;BME280;41299;43.546;16.426;2022-08-02T05:57:41;101366.50;;;27.77;53.99
54822;BME280;41299;43.546;16.426;2022-08-02T06:00:12;101366.47;;;29.40;52.60
54822;BME280;41299;43.546;16.426;2022-08-02T06:05:14;101370.53;;;31.91;43.98
54822;BME280;41299;43.546;16.426;2022-08-02T06:07:43;101367.97;;;31.89;42.07
54822;BME280;41299;43.546;16.426;2022-08-02T06:10:11;101368.03;;;31.28;41.79
54822;BME280;41299;43.546;16.426;2022-08-02T06:15:20;101370.84;;;30.09;46.35
54822;BME280;41299;43.546;16.426;2022-08-02T06:17:46;101365.84;;;29.64;43.58
54822;BME280;41299;43.546;16.426;2022-08-02T06:20:13;101369.97;;;29.40;43.01
54822;BME280;41299;43.546;16.426;2022-08-02T06:22:43;101361.66;;;29.32;43.55
54822;BME280;41299;43.546;16.426;2022-08-02T06:25:10;101369.16;;;29.25;43.06
54822;BME280;41299;43.546;16.426;2022-08-02T06:27:36;101367.44;;;29.24;42.77
54822;BME280;41299;43.546;16.426;2022-08-02T06:30:03;101372.53;;;29.27;43.68
54822;BME280;41299;43.546;16.426;2022-08-02T06:32:30;101374.81;;;29.34;43.78
54822;BME280;41299;43.546;16.426;2022-08-02T06:34:56;101373.56;;;29.39;44.64
54822;BME280;41299;43.546;16.426;2022-08-02T06:37:40;101373.03;;;29.49;43.74
54822;BME280;41299;43.546;16.426;2022-08-02T06:40:44;101371.25;;;29.48;42.18
54822;BME280;41299;43.546;16.426;2022-08-02T06:43:17;101371.09;;;29.51;41.38
54822;BME280;41299;43.546;16.426;2022-08-02T06:45:46;101370.50;;;29.60;40.60
54822;BME280;41299;43.546;16.426;2022-08-02T06:48:11;101375.66;;;29.76;44.10
54822;BME280;41299;43.546;16.426;2022-08-02T06:50:37;101368.22;;;29.82;41.18
54822;BME280;41299;43.546;16.426;2022-08-02T06:53:05;101372.72;;;29.94;38.36
54822;BME280;41299;43.546;16.426;2022-08-02T06:55:30;101370.00;;;30.09;37.35
54822;BME280;41299;43.546;16.426;2022-08-02T06:57:57;101383.13;;;30.25;38.14
54822;BME280;41299;43.546;16.426;2022-08-02T07:00:22;101371.97;;;30.32;38.05
54822;BME280;41299;43.546;16.426;2022-08-02T07:02:48;101376.75;;;30.40;37.88
54822;BME280;41299;43.546;16.426;2022-08-02T07:05:14;101373.44;;;30.50;36.92
54822;BME280;41299;43.546;16.426;2022-08-02T07:07:39;101370.34;;;30.56;37.01
54822;BME280;41299;43.546;16.426;2022-08-02T07:10:05;101369.63;;;30.54;37.92
54822;BME280;41299;43.546;16.426;2022-08-02T07:12:32;101378.66;;;30.64;36.11
54822;BME280;41299;43.546;16.426;2022-08-02T07:15:03;101375.59;;;30.70;37.14
54822;BME280;41299;43.546;16.426;2022-08-02T07:17:30;101371.31;;;30.81;35.52
54822;BME280;41299;43.546;16.426;2022-08-02T07:19:56;101370.66;;;30.90;35.58
54822;BME280;41299;43.546;16.426;2022-08-02T07:22:21;101373.84;;;30.95;34.15
54822;BME280;41299;43.546;16.426;2022-08-02T07:24:49;101364.03;;;31.09;34.92
54822;BME280;41299;43.546;16.426;2022-08-02T07:27:14;101361.66;;;31.17;35.20
54822;BME280;41299;43.546;16.426;2022-08-02T07:29:40;101354.63;;;31.16;34.93
54822;BME280;41299;43.546;16.426;2022-08-02T07:32:06;101355.75;;;31.25;35.75
54822;BME280;41299;43.546;16.426;2022-08-02T07:34:31;101347.13;;;31.34;35.33
54822;BME280;41299;43.546;16.426;2022-08-02T07:36:57;101356.88;;;31.47;34.88
54822;BME280;41299;43.546;16.426;2022-08-02T07:39:22;101358.00;;;31.56;33.87
54822;BME280;41299;43.546;16.426;2022-08-02T07:41:48;101359.13;;;31.64;33.93
54822;BME280;41299;43.546;16.426;2022-08-02T07:44:16;101358.88;;;31.68;32.70
54822;BME280;41299;43.546;16.426;2022-08-02T07:46:41;101350.00;;;31.80;34.21
54822;BME280;41299;43.546;16.426;2022-08-02T07:49:06;101354.47;;;31.79;32.68
54822;BME280;41299;43.546;16.426;2022-08-02T07:51:32;101350.38;;;31.87;33.64
54822;BME280;41299;43.546;16.426;2022-08-02T07:53:57;101353.94;;;31.99;33.50
54822;BME280;41299;43.546;16.426;2022-08-02T07:56:23;101351.41;;;32.09;33.04
54822;BME280;41299;43.546;16.426;2022-08-02T07:58:48;101358.72;;;32.18;34.18
54822;BME280;41299;43.546;16.426;2022-08-02T08:01:14;101359.56;;;32.18;34.25
54822;BME280;41299;43.546;16.426;2022-08-02T08:03:39;101348.88;;;32.18;33.12
54822;BME280;41299;43.546;16.426;2022-08-02T08:06:04;101344.16;;;32.22;35.71
54822;BME280;41299;43.546;16.426;2022-08-02T08:08:30;101353.16;;;32.32;33.66
54822;BME280;41299;43.546;16.426;2022-08-02T08:10:55;101344.91;;;32.24;33.92
54822;BME280;41299;43.546;16.426;2022-08-02T08:13:21;101344.41;;;32.30;33.24
54822;BME280;41299;43.546;16.426;2022-08-02T08:15:46;101336.91;;;32.36;33.49
54822;BME280;41299;43.546;16.426;2022-08-02T08:18:11;101320.31;;;32.43;31.67
54822;BME280;41299;43.546;16.426;2022-08-02T08:20:37;101332.31;;;32.49;31.13
54822;BME280;41299;43.546;16.426;2022-08-02T08:23:02;101333.19;;;32.61;32.62
54822;BME280;41299;43.546;16.426;2022-08-02T08:25:28;101331.94;;;32.77;31.13
54822;BME280;41299;43.546;16.426;2022-08-02T08:27:53;101330.50;;;32.84;32.72
54822;BME280;41299;43.546;16.426;2022-08-02T08:30:20;101335.69;;;32.97;31.01
54822;BME280;41299;43.546;16.426;2022-08-02T08:32:46;101345.53;;;33.08;30.71
54822;BME280;41299;43.546;16.426;2022-08-02T08:35:11;101340.97;;;33.20;29.06
54822;BME280;41299;43.546;16.426;2022-08-02T08:37:39;101350.44;;;33.24;28.39
54822;BME280;41299;43.546;16.426;2022-08-02T08:40:06;101355.97;;;32.65;31.48
54822;BME280;41299;43.546;16.426;2022-08-02T08:42:32;101361.25;;;32.19;34.77
54822;BME280;41299;43.546;16.426;2022-08-02T08:44:58;101360.88;;;32.13;34.80
54822;BME280;41299;43.546;16.426;2022-08-02T08:47:41;101369.16;;;32.32;36.10
54822;BME280;41299;43.546;16.426;2022-08-02T08:50:26;101370.13;;;32.20;39.12
54822;BME280;41299;43.546;16.426;2022-08-02T08:53:04;101365.59;;;31.98;39.79
54822;BME280;41299;43.546;16.426;2022-08-02T08:55:31;101371.28;;;32.04;43.10
54822;BME280;41299;43.546;16.426;2022-08-02T08:57:59;101372.88;;;31.83;43.87
54822;BME280;41299;43.546;16.426;2022-08-02T09:00:25;101378.56;;;31.53;48.29
54822;BME280;41299;43.546;16.426;2022-08-02T09:02:52;101386.75;;;31.39;49.39
54822;BME280;41299;43.546;16.426;2022-08-02T09:05:17;101379.94;;;31.22;46.08
54822;BME280;41299;43.546;16.426;2022-08-02T09:07:46;101384.53;;;31.20;46.88
54822;BME280;41299;43.546;16.426;2022-08-02T09:15:34;101390.44;;;31.12;43.76
54822;BME280;41299;43.546;16.426;2022-08-02T09:18:02;101392.97;;;31.13;43.70
54822;BME280;41299;43.546;16.426;2022-08-02T09:20:28;101385.97;;;31.12;44.33
54822;BME280;41299;43.546;16.426;2022-08-02T09:23:07;101381.03;;;31.19;43.85
54822;BME280;41299;43.546;16.426;2022-08-02T09:25:33;101382.22;;;31.15;42.10
54822;BME280;41299;43.546;16.426;2022-08-02T09:27:59;101372.22;;;31.06;39.53
54822;BME280;41299;43.546;16.426;2022-08-02T09:30:26;101375.69;;;31.19;40.63
54822;BME280;41299;43.546;16.426;2022-08-02T09:32:51;101381.66;;;31.23;41.69
54822;BME280;41299;43.546;16.426;2022-08-02T09:35:35;101379.31;;;31.18;45.48
54822;BME280;41299;43.546;16.426;2022-08-02T09:38:12;101372.66;;;31.12;42.32
54822;BME280;41299;43.546;16.426;2022-08-02T09:40:39;101370.38;;;31.19;41.58
54822;BME280;41299;43.546;16.426;2022-08-02T09:43:05;101376.09;;;31.26;40.65
54822;BME280;41299;43.546;16.426;2022-08-02T09:45:32;101371.22;;;31.33;41.92
54822;BME280;41299;43.546;16.426;2022-08-02T09:48:07;101366.72;;;31.33;43.89
54822;BME280;41299;43.546;16.426;2022-08-02T09:50:36;101368.09;;;31.39;45.99
54822;BME280;41299;43.546;16.426;2022-08-02T09:53:03;101363.84;;;31.36;47.32
54822;BME280;41299;43.546;16.426;2022-08-02T09:55:28;101363.81;;;30.99;50.28
54822;BME280;41299;43.546;16.426;2022-08-02T09:57:54;101356.78;;;30.98;48.98
54822;BME280;41299;43.546;16.426;2022-08-02T10:00:19;101366.28;;;30.89;48.65
54822;BME280;41299;43.546;16.426;2022-08-02T10:03:08;101371.63;;;30.76;45.88
54822;BME280;41299;43.546;16.426;2022-08-02T10:05:48;101364.69;;;30.99;44.30
54822;BME280;41299;43.546;16.426;2022-08-02T10:08:14;101358.47;;;31.12;43.56
54822;BME280;41299;43.546;16.426;2022-08-02T10:10:41;101352.69;;;31.31;40.69
54822;BME280;41299;43.546;16.426;2022-08-02T10:13:07;101348.25;;;31.43;39.95
54822;BME280;41299;43.546;16.426;2022-08-02T10:15:32;101357.09;;;31.68;38.89
54822;BME280;41299;43.546;16.426;2022-08-02T10:17:58;101354.56;;;31.78;41.09
54822;BME280;41299;43.546;16.426;2022-08-02T10:20:24;101350.16;;;31.90;41.21
54822;BME280;41299;43.546;16.426;2022-08-02T10:22:50;101348.25;;;32.03;40.80
54822;BME280;41299;43.546;16.426;2022-08-02T10:25:19;101345.47;;;32.05;36.54
54822;BME280;41299;43.546;16.426;2022-08-02T10:27:45;101341.13;;;32.15;37.48
54822;BME280;41299;43.546;16.426;2022-08-02T10:30:13;101335.66;;;32.28;35.75
54822;BME280;41299;43.546;16.426;2022-08-02T10:32:42;101335.19;;;32.23;34.29
54822;BME280;41299;43.546;16.426;2022-08-02T10:35:12;101328.41;;;32.30;32.53
54822;BME280;41299;43.546;16.426;2022-08-02T10:37:40;101327.94;;;32.37;33.47
54822;BME280;41299;43.546;16.426;2022-08-02T10:40:07;101330.84;;;32.45;33.65
54822;BME280;41299;43.546;16.426;2022-08-02T10:42:53;101332.88;;;32.30;33.97
54822;BME280;41299;43.546;16.426;2022-08-02T10:45:21;101330.81;;;32.22;34.61
54822;BME280;41299;43.546;16.426;2022-08-02T10:50:51;101332.09;;;31.94;34.93
54822;BME280;41299;43.546;16.426;2022-08-02T10:53:27;101334.31;;;32.00;35.07
54822;BME280;41299;43.546;16.426;2022-08-02T10:55:54;101331.94;;;31.84;36.25
54822;BME280;41299;43.546;16.426;2022-08-02T10:58:22;101322.44;;;31.68;35.69
54822;BME280;41299;43.546;16.426;2022-08-02T11:00:48;101320.94;;;31.64;35.15
54822;BME280;41299;43.546;16.426;2022-08-02T11:06:05;101317.84;;;32.17;33.79
54822;BME280;41299;43.546;16.426;2022-08-02T11:08:31;101322.31;;;32.17;33.76
54822;BME280;41299;43.546;16.426;2022-08-02T11:11:14;101320.72;;;32.03;34.22
54822;BME280;41299;43.546;16.426;2022-08-02T11:14:05;101320.66;;;31.80;36.99
54822;BME280;41299;43.546;16.426;2022-08-02T11:19:23;101318.63;;;31.59;40.16
54822;BME280;41299;43.546;16.426;2022-08-02T11:22:04;101322.28;;;31.58;40.92
54822;BME280;41299;43.546;16.426;2022-08-02T11:26:56;101324.09;;;31.33;39.52
54822;BME280;41299;43.546;16.426;2022-08-02T11:29:34;101321.78;;;31.29;38.63
54822;BME280;41299;43.546;16.426;2022-08-02T11:32:00;101315.88;;;31.36;37.84
54822;BME280;41299;43.546;16.426;2022-08-02T11:34:26;101312.97;;;31.39;37.06
54822;BME280;41299;43.546;16.426;2022-08-02T11:36:52;101314.91;;;31.37;36.86
54822;BME280;41299;43.546;16.426;2022-08-02T11:39:20;101311.72;;;31.32;36.99
54822;BME280;41299;43.546;16.426;2022-08-02T11:41:53;101305.13;;;31.38;37.57
54822;BME280;41299;43.546;16.426;2022-08-02T11:44:20;101296.66;;;31.44;37.54
54822;BME280;41299;43.546;16.426;2022-08-02T11:46:56;101302.25;;;31.52;38.61
54822;BME280;41299;43.546;16.426;2022-08-02T11:49:23;101299.16;;;31.34;46.64
54822;BME280;41299;43.546;16.426;2022-08-02T11:51:55;101304.59;;;31.33;46.59
54822;BME280;41299;43.546;16.426;2022-08-02T11:54:42;101308.16;;;31.20;60.98
54822;BME280;41299;43.546;16.426;2022-08-02T11:57:21;101303.75;;;31.19;46.60
54822;BME280;41299;43.546;16.426;2022-08-02T11:59:52;101302.16;;;31.17;44.18
54822;BME280;41299;43.546;16.426;2022-08-02T12:02:20;101305.78;;;31.29;44.13
54822;BME280;41299;43.546;16.426;2022-08-02T12:04:59;101294.47;;;31.38;45.00
54822;BME280;41299;43.546;16.426;2022-08-02T12:10:10;101294.72;;;31.46;42.18
54822;BME280;41299;43.546;16.426;2022-08-02T12:12:46;101292.66;;;31.50;40.36
54822;BME280;41299;43.546;16.426;2022-08-02T12:15:11;101296.97;;;31.64;37.31
54822;BME280;41299;43.546;16.426;2022-08-02T12:17:37;101287.28;;;31.74;37.96
54822;BME280;41299;43.546;16.426;2022-08-02T12:20:34;101295.38;;;31.97;36.62
54822;BME280;41299;43.546;16.426;2022-08-02T12:23:03;101292.25;;;32.15;35.95
54822;BME280;41299;43.546;16.426;2022-08-02T12:25:29;101286.72;;;32.41;37.77
54822;BME280;41299;43.546;16.426;2022-08-02T12:28:19;101287.53;;;32.64;37.03
54822;BME280;41299;43.546;16.426;2022-08-02T12:31:00;101284.47;;;32.92;38.28
54822;BME280;41299;43.546;16.426;2022-08-02T12:33:28;101289.56;;;32.83;36.89
54822;BME280;41299;43.546;16.426;2022-08-02T12:35:54;101283.69;;;33.12;37.18
54822;BME280;41299;43.546;16.426;2022-08-02T12:38:20;101283.25;;;33.29;38.01
54822;BME280;41299;43.546;16.426;2022-08-02T12:40:46;101288.31;;;33.43;38.59
54822;BME280;41299;43.546;16.426;2022-08-02T12:43:22;101281.59;;;33.49;41.44
54822;BME280;41299;43.546;16.426;2022-08-02T12:45:50;101276.59;;;33.23;38.48
54822;BME280;41299;43.546;16.426;2022-08-02T12:48:32;101271.72;;;33.28;38.78
54822;BME280;41299;43.546;16.426;2022-08-02T12:50:58;101273.38;;;33.41;39.36
54822;BME280;41299;43.546;16.426;2022-08-02T12:53:42;101268.47;;;33.24;37.16
54822;BME280;41299;43.546;16.426;2022-08-02T12:56:07;101266.91;;;33.22;38.29
54822;BME280;41299;43.546;16.426;2022-08-02T12:58:47;101265.84;;;33.13;39.06
54822;BME280;41299;43.546;16.426;2022-08-02T13:01:19;101263.53;;;33.08;39.36
54822;BME280;41299;43.546;16.426;2022-08-02T13:03:45;101267.59;;;33.24;36.02
54822;BME280;41299;43.546;16.426;2022-08-02T13:06:11;101260.75;;;33.10;36.66
54822;BME280;41299;43.546;16.426;2022-08-02T13:08:43;101262.94;;;33.05;38.06
54822;BME280;41299;43.546;16.426;2022-08-02T13:11:09;101261.84;;;32.96;39.12
54822;BME280;41299;43.546;16.426;2022-08-02T13:13:37;101262.00;;;32.83;39.30
54822;BME280;41299;43.546;16.426;2022-08-02T13:16:03;101262.66;;;32.75;39.34
54822;BME280;41299;43.546;16.426;2022-08-02T13:18:28;101259.72;;;32.67;39.17
54822;BME280;41299;43.546;16.426;2022-08-02T13:20:56;101255.84;;;32.71;40.51
54822;BME280;41299;43.546;16.426;2022-08-02T13:23:22;101253.53;;;32.78;42.01
54822;BME280;41299;43.546;16.426;2022-08-02T13:25:49;101250.09;;;32.87;43.96